Time;durP1;ratioP1;P1;durP2;ratioP2;P2;SDS_P1;SDS_P2;PMS_P1;PMS_P2;Temp;Humidity;BMP_temperature;BMP_pressure;BME280_temperature;BME280_humidity;BME280_pressure;Samples;Min_cycle;Max_cycle;Signal;HPM_P1;HPM_P2
2021/05/11 00:00:47;;;;;;;1.70;0.80;;;;;;;;;;4948775;29;20513;-76
2021/05/11 00:03:52;;;;;;;0.80;0.70;;;;;;;;;;4937774;29;20199;-75
2021/05/11 00:06:56;;;;;;;4.50;0.90;;;;;;;;;;4953617;29;20555;-76
2021/05/11 00:10:00;;;;;;;1.00;0.73;;;;;;;;;;4944254;29;20552;-76
2021/05/11 00:13:05;;;;;;;1.23;0.80;;;;;;;;;;4951974;29;20657;-76
2021/05/11 00:16:09;;;;;;;0.97;0.63;;;;;;;;;;4938983;29;20208;-76
2021/05/11 00:19:14;;;;;;;1.53;0.70;;;;;;;;;;4944068;29;20536;-75
2021/05/11 00:22:18;;;;;;;2.47;0.83;;;;;;;;;;4948572;29;20224;-76
2021/05/11 00:25:23;;;;;;;1.43;0.70;;;;;;;;;;4937246;29;20199;-76
2021/05/11 00:28:40;;;;;;;1.40;0.80;;;;;;;;;;4938810;29;20212;-76
2021/05/11 00:31:45;;;;;;;3.63;0.77;;;;;;;;;;4953239;29;20232;-76
2021/05/11 00:34:49;;;;;;;0.93;0.60;;;;;;;;;;4937754;29;20659;-76
2021/05/11 00:37:54;;;;;;;0.80;0.60;;;;;;;;;;4936939;29;20562;-76
2021/05/11 00:40:59;;;;;;;2.10;0.83;;;;;;;;;;4942006;29;20713;-76
2021/05/11 00:44:18;;;;;;;2.13;0.70;;;;;;;;;;4956438;29;20179;-76
2021/05/11 00:47:22;;;;;;;2.00;0.63;;;;;;;;;;4956787;29;20635;-76
2021/05/11 00:50:26;;;;;;;1.33;0.70;;;;;;;;;;4956721;29;20219;-76
2021/05/11 00:53:30;;;;;;;2.27;0.70;;;;;;;;;;4952401;29;20196;-76
2021/05/11 00:56:34;;;;;;;0.90;0.70;;;;;;;;;;4956566;29;20183;-76
2021/05/11 00:59:38;;;;;;;1.07;0.90;;;;;;;;;;4952585;29;20183;-76
2021/05/11 01:02:42;;;;;;;0.50;0.50;;;;;;;;;;4944964;29;20707;-76
2021/05/11 01:05:46;;;;;;;1.97;0.90;;;;;;;;;;4937620;29;20188;-76
2021/05/11 01:08:51;;;;;;;1.37;0.70;;;;;;;;;;4947780;29;20214;-76
2021/05/11 01:11:55;;;;;;;1.20;0.70;;;;;;;;;;4943664;29;20223;-76
2021/05/11 01:15:00;;;;;;;0.70;0.60;;;;;;;;;;4937111;29;20200;-76
2021/05/11 01:18:17;;;;;;;2.97;0.73;;;;;;;;;;4955150;29;20207;-76
2021/05/11 01:21:41;;;;;;;1.53;0.63;;;;;;;;;;4955951;29;20227;-76
2021/05/11 01:24:48;;;;;;;3.47;0.73;;;;;;;;;;4955893;29;20195;-76
2021/05/11 01:28:10;;;;;;;1.63;0.73;;;;;;;;;;4938770;29;20196;-76
2021/05/11 01:31:42;;;;;;;2.17;0.67;;;;;;;;;;4942791;29;20552;-76
2021/05/11 01:51:31;;;;;;;1.50;0.97;;;;;;;;;;4949618;29;20207;-75
2021/05/11 02:24:36;;;;;;;0.83;0.60;;;;;;;;;;4955341;29;20192;-76
2021/05/11 02:27:41;;;;;;;0.80;0.63;;;;;;;;;;4941150;29;20196;-76
2021/05/11 02:30:45;;;;;;;1.00;0.57;;;;;;;;;;4936038;29;20216;-76
2021/05/11 02:33:49;;;;;;;1.07;0.57;;;;;;;;;;4935056;29;20184;-75
2021/05/11 02:36:53;;;;;;;0.67;0.43;;;;;;;;;;4931737;29;20195;-76
2021/05/11 02:39:58;;;;;;;1.10;0.70;;;;;;;;;;4954433;29;20184;-75
2021/05/11 02:43:10;;;;;;;1.53;0.60;;;;;;;;;;4955231;29;20184;-75
2021/05/11 02:46:14;;;;;;;0.87;0.50;;;;;;;;;;4952443;29;20229;-76
2021/05/11 02:49:22;;;;;;;2.40;0.70;;;;;;;;;;4945909;28;20212;-76
2021/05/11 02:52:27;;;;;;;0.50;0.50;;;;;;;;;;4954197;29;20211;-76
2021/05/11 02:55:32;;;;;;;0.90;0.60;;;;;;;;;;4954178;29;20180;-75
2021/05/11 02:58:36;;;;;;;0.63;0.50;;;;;;;;;;4955066;29;20187;-75
2021/05/11 03:01:40;;;;;;;0.90;0.57;;;;;;;;;;4954638;29;20214;-75
2021/05/11 03:04:44;;;;;;;0.80;0.70;;;;;;;;;;4954032;29;20555;-75
2021/05/11 03:07:49;;;;;;;2.40;0.70;;;;;;;;;;4936352;29;20203;-75
2021/05/11 03:10:53;;;;;;;0.50;0.50;;;;;;;;;;4951778;29;20207;-75
2021/05/11 03:13:57;;;;;;;1.93;0.70;;;;;;;;;;4955161;29;20207;-76
2021/05/11 03:17:02;;;;;;;1.73;0.70;;;;;;;;;;4953504;29;20203;-75
2021/05/11 03:20:08;;;;;;;0.70;0.60;;;;;;;;;;4936778;29;20204;-76
2021/05/11 03:23:12;;;;;;;2.53;0.70;;;;;;;;;;4934880;29;20184;-75
2021/05/11 03:26:16;;;;;;;0.70;0.70;;;;;;;;;;4936316;29;20548;-76
2021/05/11 03:29:20;;;;;;;0.60;0.43;;;;;;;;;;4948910;28;20227;-76
2021/05/11 03:32:25;;;;;;;1.20;0.70;;;;;;;;;;4953130;29;20555;-75
2021/05/11 03:35:29;;;;;;;1.50;0.77;;;;;;;;;;4954765;29;20195;-75
2021/05/11 03:38:33;;;;;;;1.00;0.90;;;;;;;;;;4939068;29;20624;-75
2021/05/11 03:41:41;;;;;;;2.60;1.00;;;;;;;;;;4946943;29;20224;-75
2021/05/11 03:44:49;;;;;;;0.80;0.70;;;;;;;;;;4957872;29;20199;-75
2021/05/11 03:47:54;;;;;;;0.80;0.73;;;;;;;;;;4937843;29;20533;-76
2021/05/11 03:51:06;;;;;;;2.77;0.83;;;;;;;;;;4964586;28;20231;-75
2021/05/11 03:54:11;;;;;;;3.00;0.80;;;;;;;;;;4947987;29;20643;-75
2021/05/11 03:57:15;;;;;;;1.90;0.90;;;;;;;;;;4957129;29;20531;-75
2021/05/11 04:00:19;;;;;;;2.47;1.00;;;;;;;;;;4951655;29;20204;-76
2021/05/11 04:03:23;;;;;;;3.17;1.00;;;;;;;;;;4957348;29;20203;-75
2021/05/11 04:06:28;;;;;;;0.90;0.90;;;;;;;;;;4957446;29;20207;-76
2021/05/11 04:09:37;;;;;;;2.37;0.93;;;;;;;;;;4957619;29;20207;-75
2021/05/11 04:19:17;;;;;;;3.50;3.20;;;;;;;;;;4957002;29;20218;-75
2021/05/11 04:22:21;;;;;;;1.20;1.10;;;;;;;;;;4983436;23;20231;-71
2021/05/11 04:25:25;;;;;;;1.80;1.03;;;;;;;;;;4972857;28;20191;-71
2021/05/11 04:28:29;;;;;;;1.50;1.40;;;;;;;;;;4977035;28;20186;-75
2021/05/11 04:31:37;;;;;;;3.90;1.20;;;;;;;;;;4963982;28;20231;-74
2021/05/11 04:34:41;;;;;;;40.93;2.90;;;;;;;;;;4969262;28;20207;-75
2021/05/11 04:37:45;;;;;;;6.97;1.33;;;;;;;;;;4975961;28;20207;-74
2021/05/11 04:40:50;;;;;;;4.23;1.10;;;;;;;;;;4964149;28;20658;-74
2021/05/11 04:43:57;;;;;;;1.20;1.00;;;;;;;;;;4962462;28;20190;-74
2021/05/11 04:47:08;;;;;;;5.27;1.20;;;;;;;;;;4976044;28;20202;-75
2021/05/11 04:50:23;;;;;;;3.83;1.40;;;;;;;;;;4956039;29;20547;-74
2021/05/11 04:53:28;;;;;;;1.40;1.30;;;;;;;;;;4956948;28;20196;-74
2021/05/11 04:56:31;;;;;;;19.17;2.53;;;;;;;;;;4955673;29;20643;-74
2021/05/11 04:59:36;;;;;;;4.00;1.53;;;;;;;;;;4956520;29;20201;-74
2021/05/11 05:02:45;;;;;;;11.13;1.77;;;;;;;;;;4963764;28;20222;-73
2021/05/11 05:05:49;;;;;;;10.23;1.87;;;;;;;;;;4975686;28;20226;-74
2021/05/11 05:08:53;;;;;;;2.73;1.67;;;;;;;;;;4974892;28;20571;-73
2021/05/11 05:11:57;;;;;;;4.93;1.33;;;;;;;;;;4967049;28;20702;-74
2021/05/11 05:15:03;;;;;;;5.53;1.30;;;;;;;;;;4954870;29;20183;-74
2021/05/11 05:18:07;;;;;;;2.80;1.30;;;;;;;;;;4955509;29;20180;-74
2021/05/11 05:21:13;;;;;;;8.13;1.50;;;;;;;;;;4956163;28;20227;-73
2021/05/11 05:24:22;;;;;;;48.93;18.53;;;;;;;;;;4956421;29;20184;-74
2021/05/11 05:27:38;;;;;;;2.53;1.90;;;;;;;;;;4956461;29;20191;-74
2021/05/11 05:30:42;;;;;;;3.10;1.73;;;;;;;;;;4955706;28;20203;-74
2021/05/11 05:33:46;;;;;;;2.07;1.40;;;;;;;;;;4956188;29;20191;-74
2021/05/11 05:36:50;;;;;;;2.23;1.70;;;;;;;;;;4956260;29;20187;-74
2021/05/11 05:39:58;;;;;;;10.27;1.97;;;;;;;;;;4966244;28;20183;-74
2021/05/11 05:43:02;;;;;;;34.97;2.90;;;;;;;;;;4956065;29;20184;-75
2021/05/11 05:46:07;;;;;;;1.87;1.40;;;;;;;;;;4956032;29;20180;-74
2021/05/11 05:49:11;;;;;;;62.50;4.40;;;;;;;;;;4955116;29;20639;-74
2021/05/11 05:52:20;;;;;;;1.43;1.33;;;;;;;;;;4965668;28;20224;-74
2021/05/11 05:55:24;;;;;;;52.10;5.57;;;;;;;;;;4965917;28;20191;-74
2021/05/11 05:58:30;;;;;;;3.10;1.63;;;;;;;;;;4966245;28;20667;-74
2021/05/11 06:01:34;;;;;;;5.93;1.80;;;;;;;;;;4955475;28;20686;-74
2021/05/11 06:04:38;;;;;;;3.17;1.30;;;;;;;;;;4970650;28;20187;-74
2021/05/11 06:07:43;;;;;;;13.10;1.90;;;;;;;;;;4974535;28;20203;-74
2021/05/11 06:10:49;;;;;;;2.80;1.70;;;;;;;;;;4974403;28;20574;-74
2021/05/11 06:17:18;;;;;;;4.40;1.80;;;;;;;;;;4969032;28;20543;-74
2021/05/11 06:20:22;;;;;;;3.57;1.63;;;;;;;;;;4955503;29;20623;-75
2021/05/11 06:23:26;;;;;;;1.57;1.27;;;;;;;;;;4954732;29;20183;-74
2021/05/11 06:26:31;;;;;;;1.57;1.30;;;;;;;;;;4955554;29;20187;-74
2021/05/11 06:29:38;;;;;;;129.30;10.23;;;;;;;;;;4955502;29;20180;-74
2021/05/11 06:32:42;;;;;;;4.33;1.50;;;;;;;;;;4954251;28;20218;-74
2021/05/11 06:35:49;;;;;;;3.10;1.90;;;;;;;;;;4955602;29;20619;-74
2021/05/11 06:38:53;;;;;;;3.00;1.40;;;;;;;;;;4955504;29;20179;-74
2021/05/11 06:41:58;;;;;;;1.97;1.20;;;;;;;;;;4955052;28;20206;-74
2021/05/11 06:48:16;;;;;;;4.83;1.37;;;;;;;;;;4955046;29;20180;-74
2021/05/11 06:54:31;;;;;;;2.87;1.40;;;;;;;;;;4955100;29;20192;-74
2021/05/11 06:57:35;;;;;;;1.87;1.20;;;;;;;;;;4955285;29;20187;-74
2021/05/11 07:00:43;;;;;;;1.87;1.10;;;;;;;;;;4955050;28;20180;-75
2021/05/11 07:03:48;;;;;;;1.90;1.33;;;;;;;;;;4957537;28;20254;-74
2021/05/11 07:06:52;;;;;;;1.90;1.40;;;;;;;;;;4959155;29;20516;-74
2021/05/11 07:10:20;;;;;;;2.53;1.43;;;;;;;;;;4960658;28;20191;-74
2021/05/11 07:13:23;;;;;;;2.10;1.20;;;;;;;;;;4977265;28;20183;-74
2021/05/11 07:16:28;;;;;;;2.00;1.50;;;;;;;;;;4978217;28;20179;-74
2021/05/11 07:19:32;;;;;;;2.27;1.50;;;;;;;;;;4977314;28;20179;-74
2021/05/11 07:22:36;;;;;;;3.50;1.33;;;;;;;;;;4977540;28;20222;-75
2021/05/11 07:25:57;;;;;;;2.57;1.37;;;;;;;;;;4977731;28;20183;-75
2021/05/11 07:29:07;;;;;;;2.40;1.43;;;;;;;;;;4977758;28;20186;-75
2021/05/11 07:32:13;;;;;;;1.97;1.33;;;;;;;;;;4977435;28;20223;-75
2021/05/11 07:35:17;;;;;;;3.83;1.80;;;;;;;;;;4977832;28;20187;-74
2021/05/11 07:38:24;;;;;;;2.37;1.37;;;;;;;;;;4978157;28;20522;-75
2021/05/11 07:41:28;;;;;;;9.27;2.03;;;;;;;;;;4977490;28;20210;-75
2021/05/11 07:44:35;;;;;;;4.43;1.40;;;;;;;;;;4977493;28;20186;-75
2021/05/11 08:04:41;;;;;;;5.27;1.30;;;;;;;;;;4972860;28;20543;-75
2021/05/11 08:17:40;;;;;;;2.37;1.30;;;;;;;;;;4976524;28;20199;-74
2021/05/11 08:27:34;;;;;;;2.20;1.30;;;;;;;;;;4962963;28;20194;-74
2021/05/11 08:30:39;;;;;;;3.57;1.23;;;;;;;;;;4976297;28;20226;-74
2021/05/11 08:33:43;;;;;;;3.47;2.20;;;;;;;;;;4976345;28;20538;-75
2021/05/11 08:36:47;;;;;;;4.40;4.00;;;;;;;;;;4960094;28;20195;-74
2021/05/11 08:39:51;;;;;;;5.90;2.30;;;;;;;;;;4970452;28;20670;-74
2021/05/11 08:42:58;;;;;;;20.93;2.73;;;;;;;;;;4976214;28;20215;-74
2021/05/11 08:46:08;;;;;;;9.40;2.60;;;;;;;;;;4975667;28;20186;-75
2021/05/11 08:49:13;;;;;;;3.30;1.60;;;;;;;;;;4968119;28;20196;-74
2021/05/11 09:23:31;;;;;;;3.07;1.37;;;;;;;;;;4969286;28;20194;-74
2021/05/11 09:23:44;;;;;;;1.93;1.73;;;;;;;;;;4973364;28;20195;-74
2021/05/11 09:26:56;;;;;;;1.43;1.33;;;;;;;;;;4968146;28;20199;-74
2021/05/11 09:30:17;;;;;;;2.60;1.90;;;;;;;;;;4956586;29;20529;-74
2021/05/11 09:33:32;;;;;;;3.13;1.90;;;;;;;;;;4972973;28;20538;-73
2021/05/11 10:01:09;;;;;;;4.50;2.10;;;;;;;;;;4965033;28;20206;-74
2021/05/11 10:39:42;;;;;;;4.60;2.10;;;;;;;;;;4959749;28;20195;-73
2021/05/11 10:49:32;;;;;;;9.63;2.83;;;;;;;;;;4957993;28;20190;-73
2021/05/11 10:52:42;;;;;;;4.47;2.00;;;;;;;;;;4970089;28;20223;-73
2021/05/11 10:55:46;;;;;;;3.77;2.30;;;;;;;;;;4951191;28;20199;-74
2021/05/11 10:59:07;;;;;;;10.50;2.53;;;;;;;;;;4952462;28;20635;-73
2021/05/11 11:05:52;;;;;;;3.33;2.17;;;;;;;;;;4969970;28;20190;-73
2021/05/11 11:09:08;;;;;;;4.37;1.90;;;;;;;;;;4969223;28;20416;-74
2021/05/11 11:12:12;;;;;;;4.07;2.10;;;;;;;;;;4970341;28;20223;-73
2021/05/11 11:15:18;;;;;;;2.70;1.73;;;;;;;;;;4960790;28;20547;-73
2021/05/11 11:18:22;;;;;;;3.77;1.93;;;;;;;;;;4950371;29;20188;-73
2021/05/11 11:24:34;;;;;;;3.93;2.10;;;;;;;;;;4963358;28;20195;-74
2021/05/11 11:27:38;;;;;;;6.50;2.00;;;;;;;;;;4950504;29;20188;-73
2021/05/11 11:30:42;;;;;;;7.03;1.70;;;;;;;;;;4961387;28;20194;-74
2021/05/11 11:33:46;;;;;;;5.30;2.13;;;;;;;;;;4954823;28;20206;-74
2021/05/11 11:36:59;;;;;;;6.47;2.17;;;;;;;;;;4966074;28;20207;-74
2021/05/11 11:40:06;;;;;;;10.87;2.50;;;;;;;;;;4970935;28;20658;-74
2021/05/11 11:43:11;;;;;;;4.73;2.10;;;;;;;;;;4966396;28;20187;-74
2021/05/11 11:46:23;;;;;;;2.60;2.00;;;;;;;;;;4961975;28;20191;-74
2021/05/11 11:49:30;;;;;;;6.73;2.30;;;;;;;;;;4963316;28;20188;-74
2021/05/11 11:58:49;;;;;;;29.57;3.63;;;;;;;;;;4986408;28;20198;-74
2021/05/11 12:02:02;;;;;;;4.20;2.37;;;;;;;;;;4992162;28;20225;-74
2021/05/11 12:05:14;;;;;;;3.80;1.93;;;;;;;;;;4996626;28;20629;-74
2021/05/11 12:08:24;;;;;;;5.77;2.23;;;;;;;;;;4993957;28;20194;-73
2021/05/11 12:11:28;;;;;;;2.97;2.07;;;;;;;;;;4991211;28;20222;-74
2021/05/11 12:14:37;;;;;;;12.87;2.50;;;;;;;;;;4996035;28;20649;-75
2021/05/11 12:17:45;;;;;;;4.60;1.90;;;;;;;;;;4982128;28;20202;-73
2021/05/11 12:20:59;;;;;;;4.40;2.33;;;;;;;;;;4984003;28;20634;-75
2021/05/11 12:24:03;;;;;;;6.10;2.10;;;;;;;;;;4996359;28;20544;-74
2021/05/11 12:27:22;;;;;;;19.37;3.00;;;;;;;;;;4993653;28;20183;-74
2021/05/11 12:30:36;;;;;;;18.07;2.93;;;;;;;;;;4988270;28;20206;-74
2021/05/11 12:33:44;;;;;;;4.57;2.20;;;;;;;;;;4993817;28;20225;-74
2021/05/11 12:36:53;;;;;;;48.23;5.87;;;;;;;;;;4994008;28;20205;-74
2021/05/11 12:39:57;;;;;;;3.40;2.83;;;;;;;;;;4991671;28;20689;-74
2021/05/11 12:43:02;;;;;;;4.57;2.63;;;;;;;;;;4971514;28;20214;-74
2021/05/11 12:46:24;;;;;;;4.77;2.43;;;;;;;;;;4976548;28;20216;-74
2021/05/11 12:49:29;;;;;;;5.17;2.50;;;;;;;;;;4976418;28;20190;-74
2021/05/11 12:52:33;;;;;;;8.13;2.90;;;;;;;;;;4973842;28;20242;-74
2021/05/11 13:02:45;;;;;;;4.03;2.40;;;;;;;;;;4982771;28;20235;-74
2021/05/11 13:16:13;;;;;;;4.03;2.80;;;;;;;;;;4975878;28;20187;-75
2021/05/11 13:25:05;;;;;;;6.57;2.60;;;;;;;;;;4975605;28;20227;-74
2021/05/11 13:26:11;;;;;;;5.43;3.30;;;;;;;;;;4967403;28;20202;-75
2021/05/11 13:29:41;;;;;;;5.87;3.17;;;;;;;;;;4975669;28;20183;-75
2021/05/11 13:35:59;;;;;;;10.83;2.73;;;;;;;;;;4975276;28;20206;-74
2021/05/11 13:39:05;;;;;;;3.13;2.47;;;;;;;;;;4975494;28;20190;-75
2021/05/11 13:42:09;;;;;;;4.47;2.80;;;;;;;;;;4975509;28;20218;-74
2021/05/11 13:45:14;;;;;;;6.37;3.23;;;;;;;;;;4963158;28;20183;-75
2021/05/11 13:48:22;;;;;;;4.60;3.77;;;;;;;;;;4975074;28;20183;-75
2021/05/11 13:51:27;;;;;;;21.80;4.43;;;;;;;;;;4975217;28;20693;-75
2021/05/11 13:54:31;;;;;;;4.83;3.87;;;;;;;;;;4975301;28;20215;-75
2021/05/11 14:04:22;;;;;;;18.43;3.90;;;;;;;;;;4975096;28;20183;-74
2021/05/11 14:07:26;;;;;;;32.03;5.43;;;;;;;;;;4975613;28;20179;-74
2021/05/11 14:10:30;;;;;;;20.43;7.87;;;;;;;;;;4974700;28;20194;-75
2021/05/11 14:13:34;;;;;;;9.70;8.37;;;;;;;;;;4975027;28;20218;-75
2021/05/11 14:16:38;;;;;;;11.27;8.77;;;;;;;;;;4962825;28;20183;-74
2021/05/11 14:19:43;;;;;;;10.37;9.13;;;;;;;;;;4979397;28;20190;-74
2021/05/11 14:22:47;;;;;;;15.43;9.10;;;;;;;;;;4985184;28;20222;-75
2021/05/11 14:25:52;;;;;;;9.83;8.67;;;;;;;;;;4975163;28;20628;-75
2021/05/11 14:28:56;;;;;;;10.33;9.13;;;;;;;;;;4994533;28;20614;-75
2021/05/11 14:32:00;;;;;;;24.83;10.33;;;;;;;;;;4993782;28;20727;-74
2021/05/11 14:35:05;;;;;;;11.30;9.23;;;;;;;;;;4993985;28;20181;-74
2021/05/11 14:38:09;;;;;;;12.00;9.40;;;;;;;;;;4979659;28;20195;-74
2021/05/11 14:41:13;;;;;;;10.53;9.10;;;;;;;;;;4985778;28;20217;-74
2021/05/11 14:44:18;;;;;;;15.07;9.10;;;;;;;;;;4975580;28;20182;-74
2021/05/11 14:47:22;;;;;;;12.67;9.13;;;;;;;;;;4986202;28;20570;-74
2021/05/11 14:50:27;;;;;;;10.33;9.20;;;;;;;;;;4974409;28;20653;-74
2021/05/11 14:53:31;;;;;;;10.50;9.13;;;;;;;;;;4980215;28;20205;-75
2021/05/11 14:56:40;;;;;;;11.90;9.47;;;;;;;;;;4982718;28;20191;-74
2021/05/11 14:59:44;;;;;;;13.33;10.27;;;;;;;;;;4976371;28;20663;-74
2021/05/11 15:02:48;;;;;;;12.63;10.50;;;;;;;;;;4964033;28;20233;-73
2021/05/11 15:05:52;;;;;;;11.13;10.03;;;;;;;;;;4987238;28;20193;-74
2021/05/11 15:08:57;;;;;;;11.50;10.30;;;;;;;;;;4994268;28;20209;-74
2021/05/11 15:12:01;;;;;;;12.63;11.33;;;;;;;;;;4978184;28;20237;-74
2021/05/11 15:15:06;;;;;;;13.87;11.33;;;;;;;;;;4971700;28;20225;-73
2021/05/11 15:18:10;;;;;;;16.30;11.73;;;;;;;;;;4958753;28;20190;-74
2021/05/11 15:21:15;;;;;;;14.33;11.43;;;;;;;;;;4979370;28;20731;-73
2021/05/11 15:24:19;;;;;;;16.33;11.43;;;;;;;;;;4968463;28;20201;-73
2021/05/11 15:27:23;;;;;;;15.43;12.07;;;;;;;;;;4962222;28;20696;-73
2021/05/11 15:30:29;;;;;;;12.30;11.00;;;;;;;;;;4974472;28;20217;-74
2021/05/11 15:33:33;;;;;;;13.07;11.67;;;;;;;;;;4974182;28;20225;-73
2021/05/11 15:36:37;;;;;;;18.50;11.73;;;;;;;;;;4962241;28;20221;-73
2021/05/11 15:39:44;;;;;;;16.63;11.30;;;;;;;;;;4973645;28;20684;-74
2021/05/11 15:42:49;;;;;;;11.87;10.67;;;;;;;;;;4973990;28;20229;-74
2021/05/11 15:45:54;;;;;;;12.90;11.43;;;;;;;;;;4962240;28;20182;-73
2021/05/11 15:48:58;;;;;;;13.50;11.17;;;;;;;;;;4974034;28;20185;-73
2021/05/11 15:52:03;;;;;;;13.10;10.60;;;;;;;;;;4976265;28;20233;-73
2021/05/11 15:55:08;;;;;;;13.03;11.03;;;;;;;;;;4993183;28;20707;-73
2021/05/11 15:58:13;;;;;;;11.40;10.10;;;;;;;;;;4992875;28;20198;-74
2021/05/11 16:01:17;;;;;;;11.20;10.10;;;;;;;;;;4980030;28;20226;-73
2021/05/11 16:04:21;;;;;;;14.53;10.80;;;;;;;;;;4985157;28;20197;-74
2021/05/11 16:07:25;;;;;;;12.23;10.80;;;;;;;;;;4992338;28;20193;-74
2021/05/11 16:10:30;;;;;;;11.70;10.50;;;;;;;;;;4990938;28;20197;-73
2021/05/11 16:13:39;;;;;;;14.40;11.13;;;;;;;;;;4991034;28;20222;-74
2021/05/11 16:16:44;;;;;;;20.50;10.07;;;;;;;;;;4950243;28;20209;-74
2021/05/11 16:19:48;;;;;;;15.80;13.90;;;;;;;;;;4978998;28;20200;-74
2021/05/11 16:22:53;;;;;;;11.73;10.43;;;;;;;;;;4983939;28;20244;-74
2021/05/11 16:25:57;;;;;;;12.10;10.80;;;;;;;;;;4961156;28;20589;-74
2021/05/11 16:29:03;;;;;;;12.53;10.27;;;;;;;;;;4973078;28;20194;-74
2021/05/11 16:32:11;;;;;;;10.50;9.40;;;;;;;;;;4962238;28;20237;-74
2021/05/11 16:35:16;;;;;;;10.43;9.37;;;;;;;;;;4971746;28;20233;-73
2021/05/11 16:38:20;;;;;;;11.67;10.40;;;;;;;;;;4980609;28;20668;-73
2021/05/11 16:41:24;;;;;;;12.67;10.43;;;;;;;;;;4966510;28;20229;-74
2021/05/11 16:44:29;;;;;;;11.70;10.03;;;;;;;;;;4972856;28;20205;-73
2021/05/11 16:47:33;;;;;;;10.77;9.53;;;;;;;;;;4960813;28;20651;-73
2021/05/11 16:50:37;;;;;;;14.07;10.20;;;;;;;;;;4960519;28;20569;-74
2021/05/11 16:53:42;;;;;;;18.03;9.77;;;;;;;;;;4972912;28;20221;-74
2021/05/11 16:56:46;;;;;;;10.53;9.33;;;;;;;;;;4977593;28;20206;-73
2021/05/11 16:59:50;;;;;;;10.63;9.37;;;;;;;;;;4974814;28;20202;-74
2021/05/11 17:02:54;;;;;;;12.20;9.53;;;;;;;;;;4976469;28;20232;-74
2021/05/11 17:05:58;;;;;;;10.30;9.30;;;;;;;;;;4991785;28;20198;-74
2021/05/11 17:09:05;;;;;;;9.87;8.87;;;;;;;;;;4971448;28;20187;-76
2021/05/11 17:12:09;;;;;;;11.23;8.83;;;;;;;;;;4974335;28;20226;-75
2021/05/11 17:15:15;;;;;;;10.27;9.17;;;;;;;;;;4991199;28;20217;-75
2021/05/11 17:18:20;;;;;;;9.77;8.27;;;;;;;;;;4991705;28;20570;-75
2021/05/11 17:21:26;;;;;;;10.83;7.50;;;;;;;;;;4991337;28;20230;-75
2021/05/11 17:24:30;;;;;;;9.23;8.30;;;;;;;;;;4976603;28;20209;-74
2021/05/11 17:27:35;;;;;;;10.10;7.60;;;;;;;;;;4971408;28;20178;-73
2021/05/11 17:30:40;;;;;;;9.77;7.73;;;;;;;;;;4983110;28;20720;-74
2021/05/11 17:33:46;;;;;;;8.63;7.30;;;;;;;;;;4979149;28;20661;-74
2021/05/11 17:36:50;;;;;;;8.43;7.40;;;;;;;;;;4979003;28;20186;-74
2021/05/11 17:39:54;;;;;;;8.40;7.50;;;;;;;;;;4959037;28;20190;-73
2021/05/11 17:43:02;;;;;;;7.50;6.70;;;;;;;;;;4990792;28;20693;-73
2021/05/11 17:46:06;;;;;;;9.40;7.03;;;;;;;;;;4973162;28;20608;-74
2021/05/11 17:49:11;;;;;;;7.93;7.13;;;;;;;;;;4960507;28;20183;-74
2021/05/11 17:52:15;;;;;;;10.33;7.20;;;;;;;;;;4968185;28;20217;-74
2021/05/11 17:55:19;;;;;;;7.83;6.63;;;;;;;;;;4959446;28;20203;-74
2021/05/11 17:58:23;;;;;;;7.93;6.80;;;;;;;;;;4972708;28;20198;-75
2021/05/11 18:01:28;;;;;;;6.83;6.13;;;;;;;;;;4959526;28;20230;-74
2021/05/11 18:04:32;;;;;;;7.23;6.50;;;;;;;;;;4948340;28;20195;-75
2021/05/11 18:07:38;;;;;;;7.83;7.03;;;;;;;;;;4971177;28;20194;-74
2021/05/11 18:10:42;;;;;;;7.93;6.80;;;;;;;;;;4971093;28;20186;-74
2021/05/11 18:13:47;;;;;;;10.33;7.87;;;;;;;;;;4958853;28;20179;-74
2021/05/11 18:16:52;;;;;;;9.57;8.57;;;;;;;;;;4965751;28;20703;-74
2021/05/11 18:19:56;;;;;;;10.57;8.27;;;;;;;;;;4956495;28;20221;-74
2021/05/11 18:23:00;;;;;;;9.60;7.90;;;;;;;;;;4958981;28;20227;-74
2021/05/11 18:26:05;;;;;;;9.20;8.23;;;;;;;;;;4980385;28;20194;-74
2021/05/11 18:29:09;;;;;;;14.00;9.17;;;;;;;;;;4977750;28;20198;-74
2021/05/11 18:32:14;;;;;;;10.30;8.63;;;;;;;;;;4978206;28;20228;-74
2021/05/11 18:35:23;;;;;;;9.97;8.97;;;;;;;;;;4982633;28;20225;-74
2021/05/11 18:38:31;;;;;;;11.10;8.80;;;;;;;;;;4970793;28;20542;-74
2021/05/11 18:41:35;;;;;;;10.47;8.63;;;;;;;;;;4970654;28;20222;-73
2021/05/11 18:44:40;;;;;;;10.43;9.33;;;;;;;;;;4972086;28;20645;-73
2021/05/11 18:47:55;;;;;;;11.07;9.87;;;;;;;;;;4970738;28;20198;-74
2021/05/11 18:50:59;;;;;;;11.93;10.33;;;;;;;;;;4958308;28;20230;-74
2021/05/11 18:54:04;;;;;;;10.77;9.67;;;;;;;;;;4958756;28;20190;-73
2021/05/11 18:57:08;;;;;;;10.33;9.20;;;;;;;;;;4971736;28;20210;-75
2021/05/11 19:00:15;;;;;;;11.33;9.80;;;;;;;;;;4962002;28;20219;-74
2021/05/11 19:03:18;;;;;;;13.77;10.13;;;;;;;;;;4979417;28;20622;-73
2021/05/11 19:06:23;;;;;;;12.03;9.77;;;;;;;;;;4986434;28;20554;-74
2021/05/11 19:09:28;;;;;;;11.47;9.80;;;;;;;;;;4979492;28;20248;-74
2021/05/11 19:12:34;;;;;;;14.97;11.23;;;;;;;;;;4956559;28;20230;-73
2021/05/11 19:15:38;;;;;;;12.83;11.40;;;;;;;;;;4960879;28;20230;-74
2021/05/11 19:18:42;;;;;;;13.97;12.37;;;;;;;;;;4954937;28;20226;-74
2021/05/11 19:21:47;;;;;;;14.70;11.90;;;;;;;;;;4966956;28;20242;-75
2021/05/11 19:24:51;;;;;;;14.77;12.67;;;;;;;;;;4950576;28;20266;-74
2021/05/11 19:27:56;;;;;;;13.30;11.87;;;;;;;;;;4950711;28;20193;-74
2021/05/11 19:31:04;;;;;;;14.37;11.97;;;;;;;;;;4955071;28;20234;-73
2021/05/11 19:34:12;;;;;;;15.33;12.07;;;;;;;;;;4932298;29;20199;-73
2021/05/11 19:37:17;;;;;;;14.47;12.40;;;;;;;;;;4969362;28;20261;-73
2021/05/11 19:40:22;;;;;;;14.93;12.63;;;;;;;;;;4974125;28;20198;-73
2021/05/11 19:43:26;;;;;;;13.90;11.80;;;;;;;;;;4973236;28;20205;-74
2021/05/11 19:46:30;;;;;;;15.27;12.50;;;;;;;;;;4943630;28;20572;-74
2021/05/11 19:49:34;;;;;;;19.17;11.87;;;;;;;;;;4954711;29;20198;-74
2021/05/11 19:52:40;;;;;;;11.60;10.40;;;;;;;;;;4954678;28;20230;-74
2021/05/11 19:55:49;;;;;;;11.07;9.87;;;;;;;;;;4954537;28;20218;-73
2021/05/11 19:58:53;;;;;;;12.53;10.47;;;;;;;;;;4969738;28;20222;-73
2021/05/11 20:01:59;;;;;;;10.03;7.77;;;;;;;;;;4961416;28;20229;-73
2021/05/11 20:05:04;;;;;;;9.33;8.43;;;;;;;;;;4973604;28;20197;-73
2021/05/11 20:08:08;;;;;;;7.27;6.37;;;;;;;;;;4964276;28;20203;-75
2021/05/11 20:11:15;;;;;;;7.50;6.37;;;;;;;;;;4953897;28;20219;-73
2021/05/11 20:14:20;;;;;;;11.43;8.50;;;;;;;;;;4953704;29;20200;-73
2021/05/11 20:17:24;;;;;;;5.87;5.27;;;;;;;;;;4945418;28;20194;-73
2021/05/11 20:20:28;;;;;;;6.30;5.67;;;;;;;;;;4973359;28;20650;-74
2021/05/11 20:23:32;;;;;;;6.50;5.53;;;;;;;;;;4973304;28;20202;-74
2021/05/11 20:26:36;;;;;;;33.43;13.87;;;;;;;;;;4950605;28;20203;-74
2021/05/11 20:29:41;;;;;;;5.50;4.87;;;;;;;;;;4965247;28;20197;-73
2021/05/11 20:32:45;;;;;;;12.93;8.77;;;;;;;;;;4973074;28;20596;-74
2021/05/11 20:35:54;;;;;;;14.10;7.70;;;;;;;;;;4961075;28;20253;-73
2021/05/11 20:38:59;;;;;;;7.40;5.90;;;;;;;;;;4951223;28;20570;-74
2021/05/11 20:42:04;;;;;;;6.23;5.07;;;;;;;;;;4972947;28;20218;-73
2021/05/11 20:45:10;;;;;;;6.40;5.33;;;;;;;;;;4956818;28;20187;-73
2021/05/11 20:48:14;;;;;;;5.83;4.80;;;;;;;;;;4953834;29;20179;-74
2021/05/11 20:51:20;;;;;;;8.47;4.93;;;;;;;;;;4930659;28;20227;-74
2021/05/11 20:54:24;;;;;;;4.40;3.20;;;;;;;;;;4942017;28;20191;-74
2021/05/11 20:57:28;;;;;;;2.60;2.17;;;;;;;;;;4967973;28;20191;-74
2021/05/11 21:00:33;;;;;;;2.43;2.23;;;;;;;;;;5012005;23;20247;-85
2021/05/11 21:03:37;;;;;;;3.33;2.47;;;;;;;;;;5005791;28;20186;-84
2021/05/11 21:06:43;;;;;;;2.40;2.20;;;;;;;;;;4992774;28;20197;-84
2021/05/11 21:09:47;;;;;;;2.63;2.43;;;;;;;;;;5004157;28;20220;-84
2021/05/11 21:12:52;;;;;;;2.03;1.83;;;;;;;;;;4993286;28;20189;-84
2021/05/11 21:15:56;;;;;;;2.00;1.73;;;;;;;;;;4982129;28;20687;-84
2021/05/11 21:19:18;;;;;;;1.80;1.50;;;;;;;;;;4987124;28;20652;-84
2021/05/11 21:22:22;;;;;;;2.53;1.80;;;;;;;;;;4984058;28;20178;-84
2021/05/11 21:25:45;;;;;;;2.77;1.90;;;;;;;;;;4988136;28;20206;-84
2021/05/11 21:29:07;;;;;;;2.17;1.63;;;;;;;;;;4985260;28;20202;-84
2021/05/11 21:32:12;;;;;;;2.23;1.83;;;;;;;;;;5004147;28;20209;-84
2021/05/11 21:35:16;;;;;;;2.63;1.53;;;;;;;;;;4981843;28;20209;-85
2021/05/11 21:38:39;;;;;;;2.07;1.87;;;;;;;;;;4989184;28;20190;-84
2021/05/11 21:41:43;;;;;;;2.47;1.60;;;;;;;;;;4962692;28;20182;-84
2021/05/11 21:44:47;;;;;;;2.33;2.13;;;;;;;;;;4963053;28;20175;-84
2021/05/11 21:47:52;;;;;;;1.97;1.80;;;;;;;;;;4990481;28;20541;-84
2021/05/11 21:50:56;;;;;;;2.20;2.00;;;;;;;;;;4992414;28;20221;-84
2021/05/11 21:54:00;;;;;;;2.30;1.80;;;;;;;;;;5003454;28;20532;-84
2021/05/11 21:57:05;;;;;;;3.90;1.90;;;;;;;;;;4992006;28;20205;-84
2021/05/11 22:00:36;;;;;;;2.10;1.60;;;;;;;;;;4991631;28;20221;-84
2021/05/11 22:03:40;;;;;;;1.70;1.60;;;;;;;;;;4983944;28;20194;-84
2021/05/11 22:06:47;;;;;;;1.90;1.60;;;;;;;;;;4983289;28;20182;-84
2021/05/11 22:09:51;;;;;;;1.57;1.47;;;;;;;;;;4962827;28;20209;-84
2021/05/11 22:12:56;;;;;;;2.00;1.33;;;;;;;;;;4980860;28;20182;-84
2021/05/11 22:16:00;;;;;;;2.93;1.33;;;;;;;;;;4980864;28;20680;-84
2021/05/11 22:19:07;;;;;;;1.60;1.50;;;;;;;;;;4980251;28;20193;-84
2021/05/11 22:22:12;;;;;;;1.60;1.50;;;;;;;;;;5002831;28;20554;-84